createdAt,value
2023-02-19T00:01:36.924Z,51.15
2023-02-19T00:04:07.117Z,52.92
2023-02-19T00:06:35.699Z,49.28
2023-02-19T00:09:03.632Z,51.03
2023-02-19T00:11:33.525Z,49.60
2023-02-19T00:14:02.226Z,53.83
2023-02-19T00:16:31.678Z,51.28
2023-02-19T00:18:59.604Z,47.83
2023-02-19T00:21:26.796Z,44.10
2023-02-19T00:23:56.226Z,49.35
2023-02-19T00:26:23.685Z,49.33
2023-02-19T00:28:52.269Z,43.78
2023-02-19T00:31:23.065Z,47.05
2023-02-19T00:33:53.281Z,43.28
2023-02-19T00:36:21.022Z,41.20
2023-02-19T00:38:48.318Z,40.38
2023-02-19T00:41:19.418Z,41.25
2023-02-19T00:43:52.100Z,41.15
2023-02-19T00:46:22.229Z,41.08
2023-02-19T00:48:49.474Z,39.53
2023-02-19T00:51:16.819Z,38.17
2023-02-19T00:53:44.153Z,37.95
2023-02-19T00:56:11.810Z,36.83
2023-02-19T00:58:39.057Z,39.70
2023-02-19T01:01:06.697Z,35.90
2023-02-19T01:03:34.590Z,35.25
2023-02-19T01:06:02.256Z,36.90
2023-02-19T01:08:30.994Z,38.30
2023-02-19T01:11:02.162Z,34.45
2023-02-19T01:13:30.039Z,36.00
2023-02-19T01:16:08.187Z,35.67
2023-02-19T01:18:36.008Z,33.83
2023-02-19T01:21:08.375Z,34.72
2023-02-19T01:23:36.169Z,34.63
2023-02-19T01:26:12.355Z,31.27
2023-02-19T01:28:39.435Z,34.42
2023-02-19T01:31:10.989Z,34.35
2023-02-19T01:33:38.158Z,30.58
2023-02-19T01:36:06.407Z,31.05
2023-02-19T01:38:33.593Z,34.80
2023-02-19T01:41:03.309Z,31.20
2023-02-19T01:45:58.956Z,31.83
2023-02-19T01:48:39.783Z,32.90
2023-02-19T01:51:12.816Z,32.58
2023-02-19T01:53:47.325Z,32.03
2023-02-19T01:56:16.629Z,31.58
2023-02-19T01:58:44.830Z,31.38
2023-02-19T02:01:13.774Z,29.55
2023-02-19T02:03:45.003Z,31.92
2023-02-19T02:06:35.633Z,32.53
2023-02-19T02:09:20.975Z,30.55
2023-02-19T02:11:50.748Z,31.90
2023-02-19T02:20:13.301Z,34.33
2023-02-19T02:22:54.749Z,34.92
2023-02-19T02:25:41.440Z,34.03
2023-02-19T02:28:17.273Z,34.67
2023-02-19T02:30:53.095Z,37.55
2023-02-19T02:33:33.088Z,35.83
2023-02-19T02:36:07.249Z,34.78
2023-02-19T02:38:39.118Z,36.47
2023-02-19T02:41:06.905Z,33.60
2023-02-19T02:43:34.166Z,33.70
2023-02-19T02:46:01.392Z,33.03
2023-02-19T02:48:53.812Z,32.65
2023-02-19T02:51:24.153Z,30.88
2023-02-19T02:54:37.654Z,36.35
2023-02-19T02:57:14.706Z,34.03
2023-02-19T02:59:56.968Z,31.08
2023-02-19T03:02:28.716Z,31.42
2023-02-19T03:05:41.670Z,27.00
2023-02-19T03:08:18.728Z,27.20
2023-02-19T03:10:53.437Z,29.50
2023-02-19T03:13:49.539Z,28.92
2023-02-19T03:16:53.625Z,31.67
2023-02-19T03:19:22.647Z,31.50
2023-02-19T03:22:11.675Z,30.52
2023-02-19T03:25:03.536Z,31.58
2023-02-19T03:27:33.806Z,32.83
2023-02-19T03:30:08.376Z,32.10
2023-02-19T03:32:54.690Z,28.73
2023-02-19T03:35:25.944Z,29.00
2023-02-19T03:38:08.210Z,31.67
2023-02-19T03:40:50.283Z,35.33
2023-02-19T03:43:25.068Z,33.72
2023-02-19T03:45:56.548Z,30.83
2023-02-19T03:48:33.752Z,34.20
2023-02-19T03:51:18.021Z,32.83
2023-02-19T03:54:12.892Z,38.55
2023-02-19T03:56:54.217Z,35.65
2023-02-19T03:59:43.987Z,38.33
2023-02-19T04:02:29.219Z,35.80
2023-02-19T04:05:03.324Z,34.35
2023-02-19T04:07:36.574Z,32.42
2023-02-19T04:10:06.066Z,33.67
2023-02-19T04:12:34.526Z,36.42
2023-02-19T04:15:13.506Z,33.63
2023-02-19T04:18:02.800Z,31.88
2023-02-19T04:20:34.886Z,33.42
2023-02-19T04:23:01.871Z,32.05
2023-02-19T04:25:30.322Z,32.00
2023-02-19T04:27:58.790Z,34.25
2023-02-19T04:30:25.685Z,33.00
2023-02-19T04:32:52.590Z,29.65
2023-02-19T04:35:19.423Z,28.85
2023-02-19T04:37:46.469Z,28.65
2023-02-19T04:40:13.262Z,30.98
2023-02-19T04:42:40.143Z,31.88
2023-02-19T04:45:07.376Z,28.00
2023-02-19T04:47:34.351Z,32.03
2023-02-19T04:50:01.228Z,29.17
2023-02-19T04:52:28.083Z,30.90
2023-02-19T04:54:54.931Z,33.80
2023-02-19T04:57:21.756Z,32.55
2023-02-19T04:59:48.533Z,28.23
2023-02-19T05:02:15.416Z,30.58
2023-02-19T05:04:42.477Z,26.90
2023-02-19T05:07:09.386Z,28.75
2023-02-19T05:09:36.202Z,29.38
2023-02-19T05:12:03.927Z,32.90
2023-02-19T05:14:30.739Z,28.95
2023-02-19T05:16:57.615Z,29.38
2023-02-19T05:19:24.462Z,27.45
2023-02-19T05:21:51.304Z,32.78
2023-02-19T05:24:18.070Z,27.52
2023-02-19T05:26:45.569Z,29.02
2023-02-19T05:29:12.437Z,29.92
2023-02-19T05:31:39.429Z,26.90
2023-02-19T05:34:06.311Z,29.52
2023-02-19T05:36:33.725Z,27.75
2023-02-19T05:39:00.712Z,31.17
2023-02-19T05:41:30.103Z,28.10
2023-02-19T05:43:57.604Z,27.70
2023-02-19T05:46:27.866Z,26.67
2023-02-19T05:48:55.367Z,26.17
2023-02-19T05:51:24.839Z,25.73
2023-02-19T05:53:52.191Z,24.92
2023-02-19T05:56:40.971Z,25.95
2023-02-19T05:59:28.169Z,26.87
2023-02-19T06:01:55.772Z,26.30
2023-02-19T06:04:23.405Z,27.10
2023-02-19T06:06:50.638Z,26.15
2023-02-19T06:09:17.740Z,26.80
2023-02-19T06:11:44.724Z,28.52
2023-02-19T06:14:13.801Z,26.85
2023-02-19T06:16:41.252Z,26.75
2023-02-19T06:19:08.187Z,26.40
2023-02-19T06:21:35.650Z,26.30
2023-02-19T06:24:07.506Z,23.80
2023-02-19T06:26:34.462Z,22.50
2023-02-19T06:29:01.286Z,22.60
2023-02-19T06:31:28.383Z,25.38
2023-02-19T06:33:55.351Z,21.65
2023-02-19T06:36:22.741Z,24.38
2023-02-19T06:38:49.863Z,21.25
2023-02-19T06:41:17.106Z,24.40
2023-02-19T06:43:43.966Z,24.23
2023-02-19T06:46:12.089Z,25.60
2023-02-19T06:48:40.074Z,23.70
2023-02-19T06:51:07.328Z,25.88
2023-02-19T06:53:34.139Z,23.13
2023-02-19T06:56:22.401Z,24.55
2023-02-19T06:58:49.335Z,24.33
2023-02-19T07:01:16.237Z,22.73
2023-02-19T07:03:43.228Z,22.35
2023-02-19T07:06:10.193Z,24.83
2023-02-19T07:08:37.109Z,21.98
2023-02-19T07:11:04.205Z,23.65
2023-02-19T07:13:31.168Z,21.63
2023-02-19T07:16:03.372Z,22.77
2023-02-19T07:18:31.019Z,22.60
2023-02-19T07:21:12.621Z,27.50
2023-02-19T07:23:40.534Z,25.98
2023-02-19T07:26:12.777Z,26.42
2023-02-19T07:28:50.715Z,25.63
2023-02-19T07:31:19.190Z,26.10
2023-02-19T07:33:46.815Z,26.77
2023-02-19T07:36:16.400Z,24.33
2023-02-19T07:38:43.372Z,30.17
2023-02-19T07:41:11.131Z,29.15
2023-02-19T07:43:39.142Z,31.85
2023-02-19T07:46:08.563Z,32.47
2023-02-19T07:48:36.913Z,28.40
2023-02-19T07:51:05.513Z,31.95
2023-02-19T07:53:34.171Z,30.95
2023-02-19T07:56:03.028Z,33.80
2023-02-19T07:58:30.508Z,34.93
2023-02-19T08:00:58.032Z,31.63
2023-02-19T08:03:24.953Z,32.70
2023-02-19T08:05:53.808Z,31.02
2023-02-19T08:08:20.818Z,28.53
2023-02-19T08:11:06.570Z,31.23
2023-02-19T08:13:34.217Z,28.70
2023-02-19T08:16:16.938Z,32.28
2023-02-19T08:18:49.160Z,30.02
2023-02-19T08:21:18.213Z,29.85
2023-02-19T08:23:46.378Z,27.88
2023-02-19T08:26:13.856Z,30.20
2023-02-19T08:28:41.213Z,33.35
2023-02-19T08:31:10.003Z,32.63
2023-02-19T08:33:37.663Z,27.25
2023-02-19T08:36:09.129Z,30.70
2023-02-19T08:38:37.684Z,34.70
2023-02-19T08:41:16.063Z,32.40
2023-02-19T08:43:43.885Z,31.45
2023-02-19T08:46:11.651Z,32.67
2023-02-19T08:48:39.900Z,32.20
2023-02-19T08:51:10.209Z,35.20
2023-02-19T08:53:38.916Z,35.63
2023-02-19T08:56:11.049Z,33.60
2023-02-19T08:58:38.901Z,34.22
2023-02-19T09:01:14.344Z,32.58
2023-02-19T09:03:41.811Z,35.38
2023-02-19T09:06:13.092Z,29.90
2023-02-19T09:08:40.009Z,29.73
2023-02-19T09:11:07.378Z,34.15
2023-02-19T09:13:34.404Z,32.00
2023-02-19T09:16:03.654Z,35.45
2023-02-19T09:18:30.704Z,31.63
2023-02-19T09:21:01.466Z,31.00
2023-02-19T09:23:29.036Z,32.15
2023-02-19T09:26:06.573Z,30.27
2023-02-19T09:28:33.955Z,30.48
2023-02-19T09:31:08.523Z,33.85
2023-02-19T09:33:35.945Z,32.35
2023-02-19T09:36:03.640Z,30.40
2023-02-19T09:38:31.039Z,30.08
2023-02-19T09:40:59.045Z,31.30
2023-02-19T09:43:29.367Z,34.67
2023-02-19T09:46:09.662Z,33.35
2023-02-19T09:48:36.529Z,28.33
2023-02-19T09:51:04.351Z,30.70
2023-02-19T09:53:41.460Z,31.45
2023-02-19T09:56:09.033Z,30.98
2023-02-19T09:58:59.597Z,29.38
2023-02-19T10:01:33.333Z,31.45
2023-02-19T10:04:00.626Z,32.47
2023-02-19T10:06:29.862Z,31.70
2023-02-19T10:09:11.690Z,27.70
2023-02-19T10:11:38.925Z,31.73
2023-02-19T10:14:09.431Z,32.40
2023-02-19T10:16:41.264Z,33.05
2023-02-19T10:19:13.113Z,30.33
2023-02-19T10:21:41.301Z,34.38
2023-02-19T10:24:12.279Z,31.48
2023-02-19T10:26:39.787Z,28.50
2023-02-19T10:29:06.953Z,31.75
2023-02-19T10:31:34.259Z,31.48
2023-02-19T10:34:02.319Z,29.73
2023-02-19T10:36:36.457Z,30.45
2023-02-19T10:39:42.341Z,28.70
2023-02-19T10:42:23.410Z,31.65
2023-02-19T10:44:55.591Z,28.52
2023-02-19T10:47:25.886Z,31.77
2023-02-19T10:49:55.530Z,32.40
2023-02-19T10:52:35.344Z,34.40
2023-02-19T10:57:41.643Z,36.13
2023-02-19T11:00:26.756Z,34.20
2023-02-19T11:03:15.156Z,35.33
2023-02-19T11:05:55.582Z,32.40
2023-02-19T11:08:24.269Z,33.55
2023-02-19T11:10:51.470Z,30.90
2023-02-19T11:13:37.923Z,31.08
2023-02-19T11:16:05.527Z,34.05
2023-02-19T11:18:34.901Z,29.55
2023-02-19T11:21:07.095Z,33.15
2023-02-19T11:23:45.066Z,33.50
2023-02-19T11:26:21.657Z,30.40
2023-02-19T11:28:57.580Z,35.03
2023-02-19T11:31:28.940Z,30.50
2023-02-19T11:34:26.128Z,31.00
2023-02-19T11:37:12.047Z,30.13
2023-02-19T11:39:41.219Z,26.70
2023-02-19T11:42:14.122Z,33.45
2023-02-19T11:45:11.978Z,33.92
2023-02-19T11:48:03.998Z,29.20
2023-02-19T11:51:12.982Z,27.65
2023-02-19T11:53:49.847Z,32.70
2023-02-19T11:56:20.827Z,25.60
2023-02-19T11:59:15.913Z,29.08
2023-02-19T12:01:58.008Z,31.70
2023-02-19T12:04:59.101Z,29.80
2023-02-19T12:07:53.772Z,29.65
2023-02-19T12:10:48.518Z,27.58
2023-02-19T12:13:51.702Z,28.48
2023-02-19T12:16:54.285Z,26.45
2023-02-19T12:19:39.468Z,28.80
2023-02-19T12:22:30.050Z,27.70
2023-02-19T12:25:29.256Z,27.48
2023-02-19T12:28:03.583Z,25.83
2023-02-19T12:30:37.806Z,27.52
2023-02-19T12:33:22.841Z,28.25
2023-02-19T12:36:08.551Z,28.63
2023-02-19T12:38:50.840Z,26.67
2023-02-19T12:41:36.688Z,27.42
2023-02-19T12:44:13.946Z,25.50
2023-02-19T12:47:03.378Z,29.27
2023-02-19T12:49:33.255Z,26.50
2023-02-19T12:52:07.025Z,25.25
2023-02-19T12:54:39.092Z,19.55
2023-02-19T12:57:31.821Z,22.80
2023-02-19T13:00:23.247Z,23.08
2023-02-19T13:03:13.147Z,25.08
2023-02-19T13:06:20.152Z,25.05
2023-02-19T13:09:07.509Z,22.25
2023-02-19T13:11:43.590Z,23.77
2023-02-19T13:14:28.275Z,23.75
2023-02-19T13:17:01.641Z,22.25
2023-02-19T13:19:30.937Z,26.25
2023-02-19T13:22:39.964Z,25.95
2023-02-19T13:25:09.051Z,23.52
2023-02-19T13:27:44.946Z,22.98
2023-02-19T13:30:39.970Z,26.98
2023-02-19T13:33:20.820Z,22.08
2023-02-19T13:36:10.430Z,25.38
2023-02-19T13:38:40.293Z,22.77
2023-02-19T13:41:20.019Z,22.60
2023-02-19T13:43:54.159Z,21.90
2023-02-19T13:46:23.498Z,23.30
2023-02-19T13:49:28.478Z,27.17
2023-02-19T13:52:01.132Z,24.10
2023-02-19T13:54:40.049Z,23.17
2023-02-19T13:57:23.663Z,23.92
2023-02-19T13:59:52.047Z,23.27
2023-02-19T14:02:26.637Z,23.73
2023-02-19T14:05:02.372Z,25.63
2023-02-19T14:07:48.869Z,23.05
2023-02-19T14:10:57.881Z,23.85
2023-02-19T14:13:49.697Z,22.52
2023-02-19T14:16:35.238Z,22.27
2023-02-19T14:19:02.250Z,22.13
2023-02-19T14:21:40.118Z,20.48
2023-02-19T14:24:13.062Z,19.17
2023-02-19T14:26:41.050Z,23.42
2023-02-19T14:29:10.551Z,21.17
2023-02-19T14:31:38.886Z,22.92
2023-02-19T14:34:19.737Z,19.73
2023-02-19T14:36:55.921Z,21.88
2023-02-19T14:39:31.214Z,21.67
2023-02-19T14:41:59.541Z,20.92
2023-02-19T14:44:30.603Z,25.05
2023-02-19T14:47:13.459Z,22.70
2023-02-19T14:49:48.286Z,21.45
2023-02-19T14:52:18.760Z,21.33
2023-02-19T14:54:53.164Z,20.00
2023-02-19T14:57:25.423Z,22.58
2023-02-19T14:59:55.168Z,22.88
2023-02-19T15:04:49.016Z,22.42
2023-02-19T15:07:21.454Z,22.83
2023-02-19T15:09:51.493Z,22.10
2023-02-19T15:12:28.766Z,22.08
2023-02-19T15:14:59.690Z,27.10
2023-02-19T15:17:30.032Z,25.15
2023-02-19T15:20:00.880Z,23.70
2023-02-19T15:22:31.997Z,21.75
2023-02-19T15:25:03.138Z,23.90
2023-02-19T15:27:33.246Z,25.15
2023-02-19T15:30:06.405Z,22.20
2023-02-19T15:32:33.722Z,25.80
2023-02-19T15:35:03.250Z,26.70
2023-02-19T15:37:32.736Z,24.85
2023-02-19T15:40:05.470Z,24.08
2023-02-19T15:42:34.954Z,29.23
2023-02-19T15:45:14.559Z,24.05
2023-02-19T15:48:00.079Z,27.08
2023-02-19T15:50:35.504Z,25.05
2023-02-19T15:53:29.607Z,25.25
2023-02-19T15:56:28.170Z,27.30
2023-02-19T15:58:59.768Z,28.20
2023-02-19T16:01:29.127Z,27.95
2023-02-19T16:03:56.984Z,24.95
2023-02-19T16:06:25.182Z,25.75
2023-02-19T16:09:01.931Z,22.95
2023-02-19T16:11:37.688Z,26.13
2023-02-19T16:14:36.573Z,25.88
2023-02-19T16:17:15.376Z,25.77
2023-02-19T16:19:47.588Z,25.87
2023-02-19T16:22:24.396Z,24.20
2023-02-19T16:25:01.388Z,26.63
2023-02-19T16:27:40.623Z,27.92
2023-02-19T16:30:16.890Z,24.55
2023-02-19T16:32:45.406Z,26.92
2023-02-19T16:35:39.824Z,27.67
2023-02-19T16:38:14.486Z,26.88
2023-02-19T16:41:11.594Z,25.88
2023-02-19T16:43:44.039Z,27.67
2023-02-19T16:46:20.384Z,28.25
2023-02-19T16:48:51.293Z,28.27
2023-02-19T16:51:28.049Z,29.52
2023-02-19T16:53:55.351Z,32.03
2023-02-19T16:56:23.144Z,29.90
2023-02-19T16:58:50.623Z,29.55
2023-02-19T17:01:18.541Z,32.67
2023-02-19T17:03:47.215Z,34.08
2023-02-19T17:06:15.514Z,30.63
2023-02-19T17:08:46.266Z,35.30
2023-02-19T17:11:15.956Z,36.40
2023-02-19T17:16:26.336Z,38.78
2023-02-19T17:18:54.427Z,37.80
2023-02-19T17:21:27.252Z,35.45
2023-02-19T17:23:54.701Z,35.88
2023-02-19T17:26:24.633Z,35.22
2023-02-19T17:28:51.599Z,31.75
2023-02-19T17:31:18.683Z,36.17
2023-02-19T17:33:46.797Z,35.90
2023-02-19T17:36:19.350Z,35.25
2023-02-19T17:38:46.347Z,37.33
2023-02-19T17:41:13.244Z,33.97
2023-02-19T17:43:40.392Z,30.30
2023-02-19T17:46:07.279Z,33.70
2023-02-19T17:48:34.204Z,33.60
2023-02-19T17:51:01.077Z,31.75
2023-02-19T17:53:27.932Z,33.92
2023-02-19T17:55:54.758Z,45.00
2023-02-19T17:58:21.680Z,51.50
2023-02-19T18:00:48.535Z,45.35
2023-02-19T18:03:15.512Z,41.80
2023-02-19T18:05:42.370Z,43.47
2023-02-19T18:08:09.269Z,46.03
2023-02-19T18:10:36.196Z,46.53
2023-02-19T18:13:03.692Z,46.67
2023-02-19T18:15:30.527Z,41.67
2023-02-19T18:17:58.297Z,40.13
2023-02-19T18:20:27.692Z,38.42
2023-02-19T18:22:56.285Z,40.15
2023-02-19T18:25:24.348Z,38.28
2023-02-19T18:27:51.603Z,41.15
2023-02-19T18:30:22.556Z,39.60
2023-02-19T18:32:50.343Z,41.15
2023-02-19T18:35:21.510Z,42.03
2023-02-19T18:37:54.918Z,43.08
2023-02-19T18:40:25.391Z,41.67
2023-02-19T18:42:52.710Z,44.00
2023-02-19T18:45:19.837Z,40.67
2023-02-19T18:47:50.505Z,43.25
2023-02-19T18:50:19.200Z,40.58
2023-02-19T18:52:46.429Z,41.80
2023-02-19T18:55:13.368Z,41.65
2023-02-19T18:57:40.215Z,44.42
2023-02-19T19:00:08.079Z,42.85
2023-02-19T19:02:48.354Z,42.67
2023-02-19T19:05:24.033Z,41.60
2023-02-19T19:07:56.453Z,49.63
2023-02-19T19:10:24.048Z,44.72
2023-02-19T19:12:51.506Z,45.72
2023-02-19T19:15:19.015Z,46.33
2023-02-19T19:17:47.534Z,44.65
2023-02-19T19:20:24.751Z,45.42
2023-02-19T19:22:53.007Z,46.33
2023-02-19T19:25:21.357Z,46.40
2023-02-19T19:27:50.603Z,46.55
2023-02-19T19:30:19.946Z,46.67
2023-02-19T19:32:51.833Z,46.92
2023-02-19T19:35:20.722Z,57.42
2023-02-19T19:37:47.742Z,51.05
2023-02-19T19:40:17.504Z,50.83
2023-02-19T19:45:12.016Z,59.25
2023-02-19T19:47:39.106Z,57.53
2023-02-19T19:50:06.245Z,62.45
2023-02-19T19:52:33.123Z,58.22
2023-02-19T19:54:59.942Z,56.25
2023-02-19T19:57:26.834Z,55.58
2023-02-19T19:59:53.680Z,57.35
2023-02-19T20:02:20.747Z,63.85
2023-02-19T20:04:47.658Z,59.90
2023-02-19T20:07:14.725Z,60.58
2023-02-19T20:09:41.830Z,63.40
2023-02-19T20:12:08.746Z,65.57
2023-02-19T20:14:35.551Z,60.58
2023-02-19T20:17:02.511Z,61.97
2023-02-19T20:19:29.629Z,70.97
2023-02-19T20:21:56.494Z,60.22
2023-02-19T20:24:28.627Z,65.15
2023-02-19T20:26:58.598Z,67.47
2023-02-19T20:29:29.043Z,70.25
2023-02-19T20:31:59.075Z,73.70
2023-02-19T20:34:26.862Z,73.05
2023-02-19T20:36:54.140Z,71.38
2023-02-19T20:39:22.310Z,75.45
2023-02-19T20:41:51.235Z,68.40
2023-02-19T20:44:19.256Z,71.00
2023-02-19T20:46:48.523Z,69.63
2023-02-19T20:49:17.487Z,67.15
2023-02-19T20:51:46.348Z,60.43
2023-02-19T20:54:14.072Z,63.83
2023-02-19T20:56:45.726Z,62.80
2023-02-19T20:59:13.787Z,69.05
2023-02-19T21:01:41.138Z,68.78
2023-02-19T21:04:09.100Z,65.13
2023-02-19T21:06:36.035Z,66.22
2023-02-19T21:09:04.139Z,55.70
2023-02-19T21:11:31.262Z,48.03
2023-02-19T21:13:59.332Z,47.95
2023-02-19T21:16:27.322Z,51.05
2023-02-19T21:18:54.286Z,42.40
2023-02-19T21:21:25.265Z,45.55
2023-02-19T21:23:53.304Z,46.35
2023-02-19T21:26:20.844Z,58.63
2023-02-19T21:28:47.741Z,54.20
2023-02-19T21:31:14.631Z,52.30
2023-02-19T21:33:41.636Z,48.13
2023-02-19T21:36:09.240Z,47.78
2023-02-19T21:38:36.292Z,47.50
2023-02-19T21:41:03.177Z,44.67
2023-02-19T21:43:30.537Z,49.67
2023-02-19T21:45:57.401Z,53.75
2023-02-19T21:48:24.347Z,55.75
2023-02-19T21:50:51.305Z,58.58
2023-02-19T21:53:18.283Z,60.85
2023-02-19T21:55:57.964Z,67.95
2023-02-19T21:58:26.493Z,61.38
2023-02-19T22:00:54.063Z,57.25
2023-02-19T22:03:21.226Z,53.28
2023-02-19T22:05:48.062Z,56.67
2023-02-19T22:08:17.296Z,51.95
2023-02-19T22:10:44.342Z,53.92
2023-02-19T22:13:11.279Z,51.35
2023-02-19T22:15:38.212Z,58.65
2023-02-19T22:18:05.582Z,62.25
2023-02-19T22:20:32.590Z,60.08
2023-02-19T22:23:00.843Z,49.75
2023-02-19T22:25:27.779Z,49.97
2023-02-19T22:27:54.624Z,52.08
2023-02-19T22:30:21.579Z,61.72
2023-02-19T22:32:48.433Z,65.60
2023-02-19T22:35:16.001Z,53.92
2023-02-19T22:37:43.013Z,56.67
2023-02-19T22:40:10.250Z,61.83
2023-02-19T22:42:38.374Z,61.75
2023-02-19T22:45:06.393Z,54.53
2023-02-19T22:47:36.281Z,58.10
2023-02-19T22:50:08.968Z,60.88
2023-02-19T22:52:36.252Z,60.75
2023-02-19T22:55:03.860Z,59.92
2023-02-19T22:57:34.128Z,58.40
2023-02-19T23:00:01.101Z,55.72
2023-02-19T23:02:27.925Z,58.00
2023-02-19T23:04:54.826Z,52.70
2023-02-19T23:07:21.686Z,54.22
2023-02-19T23:09:48.923Z,55.88
2023-02-19T23:12:16.147Z,54.90
2023-02-19T23:14:43.025Z,55.65
2023-02-19T23:17:09.855Z,54.30
2023-02-19T23:19:37.975Z,52.85
2023-02-19T23:22:05.225Z,54.05
2023-02-19T23:24:32.189Z,51.38
2023-02-19T23:27:00.605Z,50.63
2023-02-19T23:29:29.610Z,58.15
2023-02-19T23:31:56.679Z,56.60
2023-02-19T23:34:24.524Z,58.17
2023-02-19T23:36:51.848Z,63.03
2023-02-19T23:39:21.259Z,61.50
2023-02-19T23:41:53.115Z,61.83
2023-02-19T23:44:21.547Z,60.90
2023-02-19T23:46:48.807Z,64.82
2023-02-19T23:49:16.446Z,58.13
2023-02-19T23:51:43.290Z,57.35
2023-02-19T23:54:11.266Z,56.35
2023-02-19T23:56:38.183Z,61.08
2023-02-19T23:59:04.990Z,58.63
